Alpena, MI

7:01 PM EST on January 25, 2015 (GMT -0500)
Otsego County | Change Station
CLOSE
Current Station
Airport
Location: Gaylord,
Elevation: 1325 ft
Nearby Weather Stations

Elev 1325 ft 45.01 °N, 84.70 °W | Updated 8 minutes ago

Partly Cloudy
Partly Cloudy
11 °F
Feels Like 3 °F
N
5
Wind Variable Wind from NE

Today
High -- | Low -- °F
--% Chance of Precip.
Yesterday
High -- | Low -- °F
Precip. -- in
8:01 AM 5:31 PM
Waxing Crescent, 37% visible
Pressure 30.10 in
Visibility 10.0 miles
Clouds Clear
Windchill 3 °F
Dew Point 2 °F
Humidity 67%
Rainfall 0.00 in
Snow Depth Not available.
UV 0 out of 12
Pollen .10 out of 12
Air Quality Not available.
Flu Activity Not available.
METAR KGLR 252353Z AUTO 04004KT 10SM CLR M12/M17 A3000 RMK AO2 SLP191 T11171167 11089 21117 53010 $

More Conditions Fewer Conditions

Pressure 30.10 in
Visibility 10.0 miles
Clouds Clear
Windchill 3 °F
Dew Point 2 °F
Humidity 67%
Rainfall 0.00 in
Snow Depth Not available.
UV 0 out of 12
Pollen .10 out of 12
Air Quality Not available.
Flu Activity Not available.
METAR KGLR 252353Z AUTO 04004KT 10SM CLR M12/M17 A3000 RMK AO2 SLP191 T11171167 11089 21117 53010 $

More Conditions Fewer Conditions

Nowcast | as of 7:00 PM EST on January 25, 2015

At 8 PM...partly cloudy. Temperature 6 above. Light winds. At 10 PM...partly cloudy. Temperature 3 above. Light winds. At 12 am...partly cloudy. Scattered flurries. Temperature zero. Light winds. At 2 am...partly cloudy. Scattered flurries. Temperature 1 below. Light winds.

×

10-Day Weather Forecast

Almanac

Astronomy

Jan. 25, 2015 Rise Set
Actual Time
Civil Twilight
Nautical Twilight
Astronomical Twilight
Moon
Length of Visible Light
Length of Day
Tomorrow will be .
, % of the Moon is Illuminated

Today's Extremes

State Highs State Lows

Community

WunderPhotos

Upload Photos

1,790,006 photos uploaded!

WunderBlogs® & News

Nearby

Air Quality

  Air Quality AQ Index Pollutant
Not available.

Snow Depth

Station Depth Elevation

Earthquake Activity

City Distance Mag. Time & Date
Minimum magnitude displayed is 2.5.

Coastal Water Temperatures

Place Temperature

Nearby Weather Stations